TAF LFOJ
METAR LFOJ
LFOJ 090930Z AUTO 22010KT 9999 // NSC 01/00 Q1009=
LFOJ 090900Z AUTO 21009KT 9999 // NSC 01/M00 Q1009=
LFOJ 090830Z AUTO 21010KT 9999 // NSC 00/M01 Q1008=
LFOJ 090800Z AUTO 22010KT 9999 // NSC 00/M01 Q1009=
LFOJ 090730Z AUTO 22010KT 9999 // NSC M00/M01 Q1008=
WC LFOJ
WS LFOJ
WV LFOJ